createdAt,value
2023-05-10T00:01:53.191Z,72.09
2023-05-10T00:04:20.437Z,72.57
2023-05-10T00:06:47.907Z,74.51
2023-05-10T00:09:15.363Z,74.43
2023-05-10T00:11:43.052Z,71.59
2023-05-10T00:14:10.447Z,74.38
2023-05-10T00:16:37.702Z,73.38
2023-05-10T00:19:05.041Z,77.66
2023-05-10T00:21:33.161Z,69.77
2023-05-10T00:24:00.865Z,69.06
2023-05-10T00:26:28.052Z,70.18
2023-05-10T00:28:57.946Z,73.81
2023-05-10T00:31:25.298Z,72.67
2023-05-10T00:33:52.657Z,72.85
2023-05-10T00:36:19.815Z,73.59
2023-05-10T00:38:46.987Z,70.86
2023-05-10T00:41:14.306Z,67.47
2023-05-10T00:43:42.498Z,66.91
2023-05-10T00:46:09.950Z,68.32
2023-05-10T00:48:37.425Z,69.56
2023-05-10T00:51:05.058Z,66.99
2023-05-10T00:53:33.931Z,67.26
2023-05-10T00:56:01.528Z,67.25
2023-05-10T00:58:31.937Z,66.72
2023-05-10T01:01:00.500Z,66.61
2023-05-10T01:03:28.860Z,66.08
2023-05-10T01:05:56.321Z,64.91
2023-05-10T01:08:23.698Z,66.63
2023-05-10T01:10:51.285Z,65.66
2023-05-10T01:13:36.084Z,64.97
2023-05-10T01:16:04.405Z,64.73
2023-05-10T01:18:42.387Z,64.52
2023-05-10T01:21:44.456Z,64.09
2023-05-10T01:24:59.773Z,64.75
2023-05-10T01:28:08.983Z,64.54
2023-05-10T01:31:03.135Z,65.08
2023-05-10T01:33:37.763Z,64.71
2023-05-10T01:36:41.107Z,66.35
2023-05-10T01:39:25.849Z,66.72
2023-05-10T01:42:06.810Z,68.59
2023-05-10T01:45:01.481Z,67.80
2023-05-10T01:47:43.656Z,66.37
2023-05-10T01:50:39.756Z,66.64
2023-05-10T01:53:11.696Z,68.05
2023-05-10T01:55:49.752Z,68.87
2023-05-10T01:58:32.698Z,70.23
2023-05-10T02:01:04.595Z,69.98
2023-05-10T02:03:33.437Z,69.76
2023-05-10T02:06:00.942Z,70.12
2023-05-10T02:08:28.579Z,72.54
2023-05-10T02:10:59.782Z,75.78
2023-05-10T02:13:30.904Z,77.19
2023-05-10T02:15:58.929Z,74.70
2023-05-10T02:18:28.734Z,73.85
2023-05-10T02:20:58.107Z,73.10
2023-05-10T02:23:26.707Z,73.41
2023-05-10T02:25:56.064Z,75.68
2023-05-10T02:28:27.235Z,77.37
2023-05-10T02:30:55.321Z,76.70
2023-05-10T02:33:23.483Z,76.71
2023-05-10T02:35:52.136Z,77.81
2023-05-10T02:38:22.599Z,79.40
2023-05-10T02:40:51.679Z,78.31
2023-05-10T02:43:21.925Z,77.49
2023-05-10T02:45:50.002Z,72.34
2023-05-10T02:48:17.878Z,76.12
2023-05-10T02:50:47.421Z,77.96
2023-05-10T02:53:28.833Z,72.03
2023-05-10T02:55:59.972Z,72.32
2023-05-10T02:58:27.655Z,75.23
2023-05-10T03:00:54.966Z,78.98
2023-05-10T03:03:22.110Z,80.27
2023-05-10T03:05:51.108Z,80.57
2023-05-10T03:08:18.360Z,74.31
2023-05-10T03:11:48.612Z,74.33
2023-05-10T03:14:58.588Z,76.28
2023-05-10T03:17:54.278Z,76.86
2023-05-10T03:20:36.444Z,76.95
2023-05-10T03:23:24.323Z,73.56
2023-05-10T03:25:52.090Z,74.03
2023-05-10T03:28:21.508Z,73.20
2023-05-10T03:30:50.597Z,73.49
2023-05-10T03:33:17.851Z,70.69
2023-05-10T03:35:47.092Z,69.95
2023-05-10T03:38:15.390Z,69.27
2023-05-10T03:40:42.637Z,68.82
2023-05-10T03:43:10.036Z,67.73
2023-05-10T03:45:37.389Z,67.90
2023-05-10T03:48:05.721Z,67.15
2023-05-10T03:50:33.031Z,67.25
2023-05-10T03:53:00.331Z,65.88
2023-05-10T03:55:29.743Z,64.33
2023-05-10T03:57:57.614Z,63.83
2023-05-10T04:00:25.096Z,63.25
2023-05-10T04:02:55.287Z,63.22
2023-05-10T04:05:23.821Z,61.87
2023-05-10T04:07:53.815Z,60.93
2023-05-10T04:10:22.284Z,60.87
2023-05-10T04:12:49.509Z,59.30
2023-05-10T04:15:16.894Z,57.43
2023-05-10T04:17:44.312Z,56.83
2023-05-10T04:20:12.820Z,56.60
2023-05-10T04:22:40.023Z,56.06
2023-05-10T04:25:08.254Z,55.29
2023-05-10T04:27:35.590Z,56.51
2023-05-10T04:30:03.338Z,55.92
2023-05-10T04:32:32.938Z,55.24
2023-05-10T04:35:00.466Z,54.07
2023-05-10T04:37:27.624Z,52.38
2023-05-10T04:39:54.879Z,49.86
2023-05-10T04:42:22.189Z,49.72
2023-05-10T04:44:49.428Z,48.89
2023-05-10T04:47:17.338Z,46.89
2023-05-10T04:49:44.643Z,46.49
2023-05-10T04:52:12.603Z,46.63
2023-05-10T04:54:39.833Z,45.31
2023-05-10T04:57:07.173Z,45.53
2023-05-10T04:59:36.741Z,44.53
2023-05-10T05:02:04.546Z,43.74
2023-05-10T05:04:32.454Z,43.19
2023-05-10T05:06:59.711Z,41.83
2023-05-10T05:09:27.089Z,41.39
2023-05-10T05:11:54.366Z,41.33
2023-05-10T05:14:26.123Z,41.25
2023-05-10T05:16:54.359Z,41.29
2023-05-10T05:19:21.833Z,40.62
2023-05-10T05:21:49.048Z,40.35
2023-05-10T05:24:16.313Z,40.20
2023-05-10T05:26:43.550Z,39.86
2023-05-10T05:29:10.741Z,38.23
2023-05-10T05:31:37.995Z,38.01
2023-05-10T05:34:05.416Z,37.59
2023-05-10T05:36:32.911Z,38.37
2023-05-10T05:39:00.144Z,38.24
2023-05-10T05:41:27.302Z,37.17
2023-05-10T05:43:54.550Z,37.70
2023-05-10T05:46:21.789Z,37.33
2023-05-10T05:48:49.053Z,36.33
2023-05-10T05:51:16.352Z,34.60
2023-05-10T05:53:43.655Z,35.52
2023-05-10T05:56:10.927Z,35.62
2023-05-10T05:58:38.196Z,34.72
2023-05-10T06:01:05.344Z,33.59
2023-05-10T06:03:33.691Z,33.75
2023-05-10T06:06:00.968Z,33.19
2023-05-10T06:08:28.313Z,31.76
2023-05-10T06:10:55.617Z,32.97
2023-05-10T06:13:22.915Z,32.30
2023-05-10T06:15:50.273Z,30.82
2023-05-10T06:18:17.484Z,31.82
2023-05-10T06:20:44.777Z,30.70
2023-05-10T06:23:12.173Z,30.25
2023-05-10T06:25:39.674Z,29.68
2023-05-10T06:28:07.048Z,29.91
2023-05-10T06:30:34.398Z,28.87
2023-05-10T06:33:01.551Z,29.13
2023-05-10T06:35:30.032Z,28.73
2023-05-10T06:37:57.277Z,27.75
2023-05-10T06:40:24.501Z,28.26
2023-05-10T06:42:52.331Z,28.24
2023-05-10T06:45:20.039Z,28.99
2023-05-10T06:47:47.518Z,28.71
2023-05-10T06:50:14.878Z,27.02
2023-05-10T06:52:42.229Z,27.14
2023-05-10T06:55:10.180Z,27.33
2023-05-10T06:57:37.581Z,28.61
2023-05-10T07:00:06.029Z,27.43
2023-05-10T07:02:33.656Z,27.20
2023-05-10T07:05:03.063Z,25.56
2023-05-10T07:07:30.950Z,26.27
2023-05-10T07:09:58.920Z,26.71
2023-05-10T07:12:26.594Z,25.76
2023-05-10T07:14:53.922Z,25.65
2023-05-10T07:17:21.279Z,24.83
2023-05-10T07:19:48.668Z,24.81
2023-05-10T07:22:18.876Z,24.58
2023-05-10T07:24:46.560Z,23.55
2023-05-10T07:27:14.194Z,23.68
2023-05-10T07:29:41.516Z,24.22
2023-05-10T07:32:08.680Z,24.32
2023-05-10T07:34:35.973Z,25.97
2023-05-10T07:37:03.334Z,24.49
2023-05-10T07:39:30.742Z,24.69
2023-05-10T07:41:58.061Z,23.90
2023-05-10T07:44:25.393Z,23.73
2023-05-10T07:46:53.171Z,24.50
2023-05-10T07:49:20.485Z,23.34
2023-05-10T07:51:47.746Z,24.06
2023-05-10T07:54:15.782Z,22.51
2023-05-10T07:56:46.752Z,21.88
2023-05-10T07:59:18.666Z,22.43
2023-05-10T08:01:46.153Z,21.32
2023-05-10T08:04:13.594Z,21.32
2023-05-10T08:06:41.531Z,21.63
2023-05-10T08:09:09.757Z,22.09
2023-05-10T08:11:37.037Z,22.37
2023-05-10T08:14:04.442Z,20.35
2023-05-10T08:16:31.692Z,21.45
2023-05-10T08:18:59.173Z,21.82
2023-05-10T08:21:27.185Z,21.07
2023-05-10T08:23:54.719Z,21.23
2023-05-10T08:26:22.721Z,19.95
2023-05-10T08:28:50.078Z,20.35
2023-05-10T08:31:17.553Z,18.92
2023-05-10T08:33:45.140Z,19.96
2023-05-10T08:36:15.204Z,20.14
2023-05-10T08:38:42.558Z,22.03
2023-05-10T08:41:11.171Z,20.61
2023-05-10T08:43:39.924Z,20.31
2023-05-10T08:46:09.953Z,20.03
2023-05-10T08:48:38.368Z,22.01
2023-05-10T08:51:06.521Z,23.07
2023-05-10T08:53:37.557Z,22.01
2023-05-10T08:56:05.627Z,21.32
2023-05-10T08:58:33.495Z,22.48
2023-05-10T09:01:02.115Z,24.35
2023-05-10T09:03:29.494Z,20.73
2023-05-10T09:05:57.007Z,19.55
2023-05-10T09:08:28.048Z,19.45
2023-05-10T09:10:56.421Z,20.60
2023-05-10T09:13:25.853Z,20.62
2023-05-10T09:15:53.891Z,18.57
2023-05-10T09:18:21.273Z,19.57
2023-05-10T09:20:50.470Z,19.34
2023-05-10T09:23:17.748Z,17.96
2023-05-10T09:25:45.128Z,19.42
2023-05-10T09:28:13.104Z,19.23
2023-05-10T09:30:40.751Z,22.44
2023-05-10T09:33:08.065Z,23.57
2023-05-10T09:35:35.472Z,24.94
2023-05-10T09:38:06.420Z,26.25
2023-05-10T09:40:33.958Z,23.57
2023-05-10T09:43:11.882Z,26.85
2023-05-10T09:45:44.039Z,27.40
2023-05-10T09:48:11.356Z,23.06
2023-05-10T09:50:38.747Z,23.51
2023-05-10T09:53:06.302Z,25.87
2023-05-10T09:55:47.902Z,24.17
2023-05-10T09:58:16.116Z,21.92
2023-05-10T10:00:45.411Z,22.89
2023-05-10T10:03:21.967Z,24.51
2023-05-10T10:05:50.218Z,26.47
2023-05-10T10:08:18.779Z,29.09
2023-05-10T10:10:47.459Z,30.69
2023-05-10T10:13:16.261Z,31.70
2023-05-10T10:15:45.356Z,29.66
2023-05-10T10:18:16.589Z,30.18
2023-05-10T10:20:44.351Z,33.82
2023-05-10T10:23:11.676Z,33.41
2023-05-10T10:25:39.838Z,29.70
2023-05-10T10:28:40.517Z,24.05
2023-05-10T10:31:22.744Z,28.45
2023-05-10T10:34:26.765Z,31.05
2023-05-10T10:36:55.307Z,28.46
2023-05-10T10:39:22.843Z,30.14
2023-05-10T10:41:59.074Z,27.33
2023-05-10T10:44:34.585Z,26.23
2023-05-10T10:47:25.715Z,24.31
2023-05-10T10:50:09.203Z,24.42
2023-05-10T10:52:44.331Z,27.60
2023-05-10T10:55:15.527Z,29.54
2023-05-10T10:58:02.121Z,31.94
2023-05-10T11:00:41.881Z,30.68
2023-05-10T11:03:19.955Z,31.01
2023-05-10T11:05:53.597Z,30.74
2023-05-10T11:08:31.086Z,29.90
2023-05-10T11:11:01.417Z,27.36
2023-05-10T11:13:44.590Z,26.98
2023-05-10T11:16:24.920Z,27.71
2023-05-10T11:19:08.705Z,29.57
2023-05-10T11:22:13.449Z,31.78
2023-05-10T11:24:40.869Z,30.32
2023-05-10T11:27:08.169Z,30.55
2023-05-10T11:29:35.560Z,32.54
2023-05-10T11:32:03.418Z,31.44
2023-05-10T11:34:34.644Z,34.30
2023-05-10T11:37:03.062Z,33.14
2023-05-10T11:39:50.290Z,35.26
2023-05-10T11:42:19.746Z,34.94
2023-05-10T11:44:49.381Z,37.23
2023-05-10T11:47:17.012Z,35.54
2023-05-10T11:49:49.329Z,35.91
2023-05-10T11:52:16.651Z,36.09
2023-05-10T11:55:02.215Z,37.13
2023-05-10T11:57:29.777Z,34.89
2023-05-10T11:59:58.669Z,35.86
2023-05-10T12:02:26.351Z,35.69
2023-05-10T12:04:53.909Z,35.19
2023-05-10T12:07:21.194Z,35.09
2023-05-10T12:10:08.836Z,31.04
2023-05-10T12:12:45.595Z,31.31
2023-05-10T12:15:24.814Z,33.00
2023-05-10T12:17:52.749Z,34.03
2023-05-10T12:20:23.280Z,33.43
2023-05-10T12:23:00.674Z,34.20
2023-05-10T12:25:36.402Z,35.33
2023-05-10T12:28:11.061Z,35.50
2023-05-10T12:30:39.822Z,33.76
2023-05-10T12:33:14.394Z,38.52
2023-05-10T12:35:54.315Z,34.42
2023-05-10T12:38:40.164Z,35.19
2023-05-10T12:41:14.191Z,34.63
2023-05-10T12:43:41.943Z,37.94
2023-05-10T12:46:15.137Z,36.78
2023-05-10T12:48:43.993Z,35.88
2023-05-10T12:51:12.929Z,34.08
2023-05-10T12:53:43.476Z,35.29
2023-05-10T12:56:12.423Z,37.09
2023-05-10T12:58:39.942Z,36.32
2023-05-10T13:01:07.671Z,36.26
2023-05-10T13:03:34.858Z,36.37
2023-05-10T13:06:02.220Z,37.13
2023-05-10T13:08:34.579Z,35.71
2023-05-10T13:11:03.859Z,36.49
2023-05-10T13:13:31.182Z,36.74
2023-05-10T13:15:58.394Z,37.20
2023-05-10T13:18:25.744Z,40.31
2023-05-10T13:20:53.165Z,39.83
2023-05-10T13:23:20.591Z,38.52
2023-05-10T13:25:48.107Z,35.87
2023-05-10T13:28:15.264Z,35.66
2023-05-10T13:30:42.645Z,35.05
2023-05-10T13:33:09.981Z,35.72
2023-05-10T13:35:37.250Z,36.78
2023-05-10T13:38:04.574Z,35.82
2023-05-10T13:40:31.892Z,36.43
2023-05-10T13:42:59.241Z,35.55
2023-05-10T13:45:26.535Z,37.16
2023-05-10T13:47:53.773Z,33.88
2023-05-10T13:50:21.413Z,34.74
2023-05-10T13:52:48.620Z,34.67
2023-05-10T13:55:15.972Z,32.03
2023-05-10T13:57:44.208Z,35.15
2023-05-10T14:00:12.290Z,30.89
2023-05-10T14:02:39.728Z,32.98
2023-05-10T14:05:07.559Z,30.68
2023-05-10T14:07:34.840Z,32.70
2023-05-10T14:10:02.439Z,33.58
2023-05-10T14:12:30.222Z,33.25
2023-05-10T14:14:59.107Z,33.69
2023-05-10T14:17:26.548Z,34.96
2023-05-10T14:19:54.318Z,32.28
2023-05-10T14:22:21.625Z,32.65
2023-05-10T14:24:49.039Z,33.49
2023-05-10T14:27:16.939Z,34.50
2023-05-10T14:29:44.257Z,32.15
2023-05-10T14:32:11.645Z,33.82
2023-05-10T14:34:39.101Z,34.48
2023-05-10T14:37:06.358Z,36.77
2023-05-10T14:39:34.196Z,36.72
2023-05-10T14:42:01.412Z,36.05
2023-05-10T14:44:28.703Z,37.21
2023-05-10T14:46:56.646Z,35.88
2023-05-10T14:49:26.555Z,34.83
2023-05-10T14:51:54.126Z,36.81
2023-05-10T14:54:21.671Z,37.92
2023-05-10T14:56:50.999Z,37.47
2023-05-10T14:59:18.453Z,35.83
2023-05-10T15:01:46.671Z,40.60
2023-05-10T15:04:17.120Z,43.50
2023-05-10T15:06:44.797Z,41.48
2023-05-10T15:09:12.105Z,41.72
2023-05-10T15:11:39.406Z,40.27
2023-05-10T15:14:07.124Z,41.61
2023-05-10T15:16:36.080Z,42.98
2023-05-10T15:19:03.940Z,42.83
2023-05-10T15:21:36.245Z,42.33
2023-05-10T15:24:03.840Z,40.53
2023-05-10T15:26:31.075Z,41.01
2023-05-10T15:28:58.386Z,45.25
2023-05-10T15:31:25.798Z,47.68
2023-05-10T15:33:53.359Z,46.51
2023-05-10T15:36:20.781Z,43.22
2023-05-10T15:38:49.379Z,47.96
2023-05-10T15:41:16.850Z,47.97
2023-05-10T15:43:44.152Z,44.53
2023-05-10T15:46:11.558Z,48.07
2023-05-10T15:48:40.390Z,52.29
2023-05-10T15:51:07.735Z,48.30
2023-05-10T15:53:34.952Z,49.58
2023-05-10T15:56:02.134Z,47.38
2023-05-10T15:58:29.522Z,44.86
2023-05-10T16:00:57.831Z,44.51
2023-05-10T16:03:25.317Z,43.73
2023-05-10T16:05:52.748Z,43.45
2023-05-10T16:08:19.966Z,41.65
2023-05-10T16:10:47.454Z,41.98
2023-05-10T16:13:15.862Z,41.49
2023-05-10T16:15:43.488Z,41.98
2023-05-10T16:18:11.218Z,42.92
2023-05-10T16:20:38.794Z,41.81
2023-05-10T16:23:07.801Z,41.31
2023-05-10T16:25:35.346Z,42.31
2023-05-10T16:28:02.801Z,41.98
2023-05-10T16:30:30.859Z,41.00
2023-05-10T16:32:58.852Z,43.45
2023-05-10T16:35:26.649Z,42.98
2023-05-10T16:37:53.991Z,43.18
2023-05-10T16:40:22.046Z,44.02
2023-05-10T16:42:49.378Z,42.64
2023-05-10T16:45:17.327Z,43.63
2023-05-10T16:47:44.810Z,46.20
2023-05-10T16:50:12.535Z,42.28
2023-05-10T16:52:40.007Z,42.83
2023-05-10T16:55:07.835Z,47.55
2023-05-10T16:57:35.354Z,49.27
2023-05-10T17:00:03.402Z,44.93
2023-05-10T17:02:30.791Z,41.72
2023-05-10T17:04:58.314Z,39.60
2023-05-10T17:07:26.398Z,40.27
2023-05-10T17:09:53.807Z,40.40
2023-05-10T17:12:21.164Z,43.37
2023-05-10T17:14:48.604Z,39.97
2023-05-10T17:17:15.920Z,39.45
2023-05-10T17:19:45.813Z,43.03
2023-05-10T17:22:14.419Z,42.33
2023-05-10T17:24:41.679Z,46.93
2023-05-10T17:27:08.978Z,45.25
2023-05-10T17:29:36.427Z,47.92
2023-05-10T17:32:03.677Z,44.66
2023-05-10T17:34:31.051Z,41.18
2023-05-10T17:36:58.375Z,41.10
2023-05-10T17:39:25.776Z,40.72
2023-05-10T17:41:53.130Z,41.39
2023-05-10T17:44:20.597Z,48.54
2023-05-10T17:46:48.254Z,46.73
2023-05-10T17:49:15.649Z,48.39
2023-05-10T17:51:44.196Z,48.61
2023-05-10T17:54:11.502Z,53.12
2023-05-10T17:56:38.721Z,51.40
2023-05-10T17:59:05.999Z,52.54
2023-05-10T18:01:33.552Z,53.06
2023-05-10T18:04:00.825Z,49.81
2023-05-10T18:06:28.219Z,49.37
2023-05-10T18:08:56.110Z,49.98
2023-05-10T18:11:23.576Z,48.13
2023-05-10T18:13:50.972Z,45.57
2023-05-10T18:16:18.975Z,47.43
2023-05-10T18:18:46.553Z,50.77
2023-05-10T18:21:14.020Z,55.31
2023-05-10T18:23:41.262Z,58.37
2023-05-10T18:26:08.777Z,57.55
2023-05-10T18:28:37.412Z,55.36
2023-05-10T18:31:04.731Z,58.11
2023-05-10T18:33:32.150Z,58.39
2023-05-10T18:36:00.208Z,59.63
2023-05-10T18:38:27.699Z,60.91
2023-05-10T18:40:55.447Z,60.09
2023-05-10T18:43:22.975Z,59.57
2023-05-10T18:45:51.388Z,58.25
2023-05-10T18:48:18.815Z,56.47
2023-05-10T18:50:46.048Z,58.77
2023-05-10T18:53:13.325Z,62.03
2023-05-10T18:55:40.792Z,58.88
2023-05-10T18:58:08.472Z,62.57
2023-05-10T19:00:35.963Z,61.88
2023-05-10T19:03:04.009Z,61.84
2023-05-10T19:05:31.764Z,63.73
2023-05-10T19:07:59.251Z,64.05
2023-05-10T19:10:26.446Z,61.48
2023-05-10T19:12:53.840Z,63.48
2023-05-10T19:15:21.977Z,61.80
2023-05-10T19:17:49.626Z,64.03
2023-05-10T19:20:16.984Z,63.58
2023-05-10T19:22:57.995Z,63.47
2023-05-10T19:25:30.049Z,63.44
2023-05-10T19:28:00.372Z,62.71
2023-05-10T19:30:30.823Z,63.13
2023-05-10T19:32:58.666Z,63.78
2023-05-10T19:35:26.174Z,62.15
2023-05-10T19:37:53.742Z,65.81
2023-05-10T19:40:21.195Z,66.74
2023-05-10T19:42:48.737Z,65.80
2023-05-10T19:45:16.493Z,62.00
2023-05-10T19:47:44.359Z,63.69
2023-05-10T19:50:12.699Z,66.02
2023-05-10T19:52:40.248Z,65.39
2023-05-10T19:55:08.886Z,61.88
2023-05-10T19:57:36.188Z,58.54
2023-05-10T20:00:05.135Z,62.60
2023-05-10T20:02:38.460Z,62.92
2023-05-10T20:05:06.471Z,63.65
2023-05-10T20:07:33.868Z,58.98
2023-05-10T20:10:01.483Z,61.56
2023-05-10T20:12:29.135Z,63.31
2023-05-10T20:14:56.678Z,61.77
2023-05-10T20:17:24.182Z,57.36
2023-05-10T20:19:51.520Z,58.46
2023-05-10T20:22:18.768Z,56.82
2023-05-10T20:24:46.583Z,63.73
2023-05-10T20:27:14.063Z,63.29
2023-05-10T20:29:41.666Z,65.64
2023-05-10T20:32:08.858Z,64.94
2023-05-10T20:34:36.120Z,66.22
2023-05-10T20:37:03.789Z,64.98
2023-05-10T20:39:31.190Z,67.36
2023-05-10T20:41:58.468Z,66.47
2023-05-10T20:44:26.573Z,71.01
2023-05-10T20:46:53.863Z,70.72
2023-05-10T20:49:21.933Z,70.01
2023-05-10T20:51:49.422Z,68.05
2023-05-10T20:54:16.646Z,68.76
2023-05-10T20:56:43.835Z,68.96
2023-05-10T20:59:11.472Z,67.28
2023-05-10T21:01:38.745Z,67.60
2023-05-10T21:04:06.251Z,65.28
2023-05-10T21:06:33.613Z,66.49
2023-05-10T21:09:01.013Z,68.87
2023-05-10T21:11:28.366Z,67.36
2023-05-10T21:13:55.870Z,68.60
2023-05-10T21:16:23.142Z,69.44
2023-05-10T21:18:50.461Z,66.94
2023-05-10T21:21:17.740Z,68.83
2023-05-10T21:23:47.547Z,65.60
2023-05-10T21:26:15.591Z,68.86
2023-05-10T21:28:42.899Z,70.52
2023-05-10T21:31:10.234Z,71.13
2023-05-10T21:33:37.614Z,69.39
2023-05-10T21:36:05.579Z,69.85
2023-05-10T21:38:33.506Z,73.21
2023-05-10T21:41:01.909Z,68.83
2023-05-10T21:43:29.191Z,70.35
2023-05-10T21:45:56.474Z,70.78
2023-05-10T21:48:23.799Z,72.85
2023-05-10T21:50:50.976Z,72.69
2023-05-10T21:53:18.170Z,71.49
2023-05-10T21:55:45.424Z,69.21
2023-05-10T21:58:12.702Z,69.16
2023-05-10T22:00:40.055Z,69.22
2023-05-10T22:03:07.457Z,70.47
2023-05-10T22:05:35.077Z,65.33
2023-05-10T22:08:02.244Z,68.41
2023-05-10T22:10:29.557Z,69.83
2023-05-10T22:12:57.354Z,64.43
2023-05-10T22:15:36.312Z,68.61
2023-05-10T22:18:04.487Z,68.92
2023-05-10T22:20:31.746Z,67.35
2023-05-10T22:22:58.986Z,66.57
2023-05-10T22:25:26.187Z,69.55
2023-05-10T22:27:53.415Z,69.83
2023-05-10T22:30:21.028Z,69.67
2023-05-10T22:32:48.883Z,70.48
2023-05-10T22:35:16.259Z,73.10
2023-05-10T22:37:43.484Z,71.65
2023-05-10T22:40:11.608Z,72.25
2023-05-10T22:42:38.910Z,70.70
2023-05-10T22:45:07.059Z,74.38
2023-05-10T22:47:34.467Z,75.92
2023-05-10T22:50:03.785Z,72.97
2023-05-10T22:52:31.079Z,72.36
2023-05-10T22:54:58.318Z,72.09
2023-05-10T22:57:26.822Z,72.87
2023-05-10T22:59:54.194Z,73.82
2023-05-10T23:02:21.422Z,76.23
2023-05-10T23:04:49.331Z,74.77
2023-05-10T23:07:16.707Z,77.83
2023-05-10T23:09:44.089Z,76.04
2023-05-10T23:12:11.263Z,74.39
2023-05-10T23:14:38.466Z,72.85
2023-05-10T23:17:05.771Z,73.48
2023-05-10T23:19:32.994Z,76.48
2023-05-10T23:22:00.207Z,75.82
2023-05-10T23:24:28.510Z,77.56
2023-05-10T23:26:55.687Z,74.03
2023-05-10T23:29:24.079Z,73.07
2023-05-10T23:31:51.558Z,70.91
2023-05-10T23:34:18.830Z,75.99
2023-05-10T23:36:45.976Z,75.66
2023-05-10T23:39:13.561Z,77.61
2023-05-10T23:41:40.849Z,78.28
2023-05-10T23:44:08.091Z,80.25
2023-05-10T23:46:35.421Z,78.73
2023-05-10T23:49:02.668Z,79.46
2023-05-10T23:51:29.874Z,78.18
2023-05-10T23:53:57.131Z,78.94
2023-05-10T23:56:24.473Z,79.46
2023-05-10T23:58:51.791Z,78.73
